Time;durP1;ratioP1;P1;durP2;ratioP2;P2;SDS_P1;SDS_P2;PMS_P1;PMS_P2;Temp;Humidity;BMP_temperature;BMP_pressure;BME280_temperature;BME280_humidity;BME280_pressure;Samples;Min_cycle;Max_cycle;Signal;HPM_P1;HPM_P2
2022/10/16 00:01:44;;;;;;;7.13;1.40;;;20.90;59.50;;;;;;5045026;28;20026;-63
2022/10/16 00:04:13;;;;;;;6.50;1.38;;;20.90;59.40;;;;;;5029692;28;20044;-62
2022/10/16 00:06:42;;;;;;;3.88;1.10;;;21.00;59.30;;;;;;5029875;28;20040;-64
2022/10/16 00:09:10;;;;;;;6.00;1.40;;;21.00;59.50;;;;;;5030057;28;20224;-64
2022/10/16 00:11:40;;;;;;;2.63;0.90;;;21.00;59.80;;;;;;5044394;28;20087;-63
2022/10/16 00:14:12;;;;;;;5.32;1.20;;;21.00;59.80;;;;;;5065084;28;20075;-63
2022/10/16 00:16:41;;;;;;;5.75;1.33;;;21.00;59.90;;;;;;5049438;28;20479;-64
2022/10/16 00:19:12;;;;;;;4.63;1.25;;;21.10;60.10;;;;;;5032618;28;20427;-63
2022/10/16 00:21:40;;;;;;;5.63;1.23;;;21.00;60.10;;;;;;5029765;28;20548;-63
2022/10/16 00:24:10;;;;;;;5.15;1.30;;;21.00;59.70;;;;;;5045082;28;20029;-63
2022/10/16 00:26:40;;;;;;;5.20;1.30;;;21.00;59.90;;;;;;5029622;28;20046;-63
2022/10/16 00:29:08;;;;;;;4.68;1.20;;;21.00;59.60;;;;;;5029623;28;20052;-63
2022/10/16 00:31:37;;;;;;;4.53;1.10;;;21.00;59.70;;;;;;5027927;28;20552;-63
2022/10/16 00:34:05;;;;;;;4.57;1.20;;;21.00;59.80;;;;;;5029391;28;20448;-63
2022/10/16 00:36:34;;;;;;;3.70;1.20;;;21.10;59.60;;;;;;5044669;28;20135;-63
2022/10/16 00:39:02;;;;;;;5.18;1.15;;;21.10;59.80;;;;;;5029600;28;20021;-63
2022/10/16 00:41:31;;;;;;;4.70;1.10;;;21.10;60.00;;;;;;5044631;28;20143;-63
2022/10/16 00:44:01;;;;;;;4.22;1.30;;;21.10;60.20;;;;;;5044664;28;20030;-62
2022/10/16 00:46:38;;;;;;;5.13;1.25;;;21.10;60.30;;;;;;5044370;28;20044;-63
2022/10/16 00:49:06;;;;;;;6.03;1.30;;;21.10;60.60;;;;;;5027586;28;20022;-63
2022/10/16 00:51:39;;;;;;;5.47;1.27;;;21.10;61.10;;;;;;5028138;28;20021;-62
2022/10/16 00:54:22;;;;;;;6.35;1.15;;;21.10;61.20;;;;;;5039681;28;20022;-62
2022/10/16 00:56:51;;;;;;;6.07;1.40;;;21.10;61.30;;;;;;5049318;28;20473;-63
2022/10/16 00:59:21;;;;;;;4.03;1.17;;;21.10;61.60;;;;;;5046045;28;20030;-63
2022/10/16 01:01:50;;;;;;;4.00;1.30;;;21.10;61.80;;;;;;5030212;28;20022;-63
2022/10/16 01:04:18;;;;;;;6.30;1.30;;;21.10;62.10;;;;;;5048565;28;20151;-62
2022/10/16 01:07:05;;;;;;;4.57;1.10;;;21.10;62.50;;;;;;5032112;28;20033;-62
2022/10/16 01:09:56;;;;;;;4.10;1.10;;;21.10;62.90;;;;;;5033213;28;20079;-62
2022/10/16 01:12:41;;;;;;;5.22;1.40;;;21.20;63.20;;;;;;5037891;28;20036;-62
2022/10/16 01:15:20;;;;;;;5.55;1.30;;;21.20;63.50;;;;;;5051729;28;20033;-62
2022/10/16 01:18:06;;;;;;;5.95;1.38;;;21.20;63.60;;;;;;5052768;28;20056;-62
2022/10/16 01:20:47;;;;;;;7.93;1.63;;;21.20;64.50;;;;;;5052880;28;20033;-63
2022/10/16 01:23:25;;;;;;;7.15;1.45;;;21.20;64.10;;;;;;5048107;28;20136;-65
2022/10/16 01:26:00;;;;;;;6.72;1.40;;;21.20;63.80;;;;;;5048011;28;20057;-62
2022/10/16 01:28:56;;;;;;;6.82;1.77;;;21.20;64.00;;;;;;5032491;28;20021;-62
2022/10/16 01:31:29;;;;;;;5.10;1.45;;;21.20;64.20;;;;;;5043370;28;20033;-63
2022/10/16 01:34:17;;;;;;;4.00;1.17;;;21.20;64.30;;;;;;5050844;28;20033;-62
2022/10/16 01:37:10;;;;;;;7.00;1.50;;;21.20;64.40;;;;;;5051526;28;20117;-63
2022/10/16 01:39:41;;;;;;;6.82;1.42;;;21.20;64.40;;;;;;5055765;28;20025;-64
2022/10/16 01:42:17;;;;;;;6.43;1.80;;;21.20;64.70;;;;;;5030891;28;20232;-64
2022/10/16 01:44:48;;;;;;;7.30;1.48;;;21.20;64.80;;;;;;5033144;28;20040;-64
2022/10/16 01:47:21;;;;;;;5.82;1.63;;;21.20;64.70;;;;;;5032075;28;20522;-63
2022/10/16 01:49:51;;;;;;;6.30;1.40;;;21.20;64.70;;;;;;5032918;28;20030;-60
2022/10/16 01:52:22;;;;;;;5.32;1.70;;;21.20;64.50;;;;;;5032576;28;20025;-64
2022/10/16 01:54:54;;;;;;;6.72;1.50;;;21.20;64.50;;;;;;5032673;28;20037;-61
2022/10/16 01:57:25;;;;;;;5.10;1.52;;;21.20;64.40;;;;;;5047472;28;20484;-64
2022/10/16 01:59:58;;;;;;;5.07;1.47;;;21.20;64.10;;;;;;5032478;28;20052;-63
2022/10/16 02:02:31;;;;;;;4.45;1.30;;;21.20;64.40;;;;;;5031388;28;20369;-63
2022/10/16 02:05:01;;;;;;;;;;;21.20;64.10;;;;;;5047998;28;20029;-63
2022/10/16 02:07:30;;;;;;;6.95;1.60;;;21.20;63.90;;;;;;5047035;28;19913;-64
2022/10/16 02:09:58;;;;;;;4.60;1.27;;;21.20;64.10;;;;;;5032506;28;20021;-65
2022/10/16 02:12:33;;;;;;;5.18;1.40;;;21.20;64.20;;;;;;5031916;28;20029;-65
2022/10/16 02:15:01;;;;;;;5.95;1.40;;;21.20;64.20;;;;;;5036483;28;20543;-64
2022/10/16 02:17:29;;;;;;;6.85;1.30;;;21.30;64.30;;;;;;5047993;28;20021;-65
2022/10/16 02:19:59;;;;;;;6.28;1.25;;;21.30;64.40;;;;;;5032312;28;20159;-65
2022/10/16 02:22:33;;;;;;;4.30;1.55;;;21.30;64.20;;;;;;5031744;28;20134;-63
2022/10/16 02:25:16;;;;;;;4.70;1.30;;;21.30;64.50;;;;;;5030773;28;20022;-63
2022/10/16 02:28:00;;;;;;;6.50;1.35;;;21.30;64.70;;;;;;5032000;28;20033;-65
2022/10/16 02:30:40;;;;;;;6.00;1.52;;;21.30;64.90;;;;;;5031251;28;20026;-65
2022/10/16 02:33:15;;;;;;;4.80;1.30;;;21.30;65.20;;;;;;5045866;28;20021;-64
2022/10/16 02:35:46;;;;;;;7.63;1.58;;;21.30;65.20;;;;;;5050101;28;20472;-64
2022/10/16 02:38:16;;;;;;;3.95;1.20;;;21.30;65.50;;;;;;5051690;28;20021;-63
2022/10/16 02:40:45;;;;;;;6.45;1.30;;;21.30;66.30;;;;;;5049961;28;20028;-64
2022/10/16 02:43:13;;;;;;;7.28;1.50;;;21.30;65.80;;;;;;5049849;28;20199;-64
2022/10/16 02:45:41;;;;;;;4.63;1.42;;;21.30;65.90;;;;;;5050813;28;20151;-65
2022/10/16 02:48:10;;;;;;;5.03;1.30;;;21.30;66.10;;;;;;5031978;28;20186;-65
2022/10/16 02:50:38;;;;;;;5.82;1.67;;;21.30;66.10;;;;;;5046344;28;20072;-64
2022/10/16 02:53:07;;;;;;;7.80;1.40;;;21.30;66.20;;;;;;5029727;28;20254;-64
2022/10/16 02:55:35;;;;;;;5.28;1.50;;;21.30;66.20;;;;;;5031070;28;20464;-64
2022/10/16 02:58:04;;;;;;;5.47;1.60;;;21.40;66.40;;;;;;5031106;28;20480;-64
2022/10/16 03:00:32;;;;;;;8.25;1.55;;;21.40;66.30;;;;;;5029730;28;20057;-64
2022/10/16 03:03:01;;;;;;;6.38;1.40;;;21.40;66.50;;;;;;5030535;28;20488;-64
2022/10/16 03:05:29;;;;;;;4.60;1.42;;;21.40;66.40;;;;;;5030573;28;20029;-64
2022/10/16 03:07:59;;;;;;;6.63;1.50;;;21.40;66.40;;;;;;5030677;28;20025;-64
2022/10/16 03:10:28;;;;;;;6.93;1.17;;;21.40;66.60;;;;;;5030843;28;20083;-64
2022/10/16 03:12:56;;;;;;;5.18;1.35;;;21.40;66.80;;;;;;5030774;28;20025;-63
2022/10/16 03:15:25;;;;;;;5.53;1.30;;;21.40;66.50;;;;;;5045365;28;20030;-63
2022/10/16 03:17:53;;;;;;;6.85;1.65;;;21.40;66.30;;;;;;5045507;28;20496;-63
2022/10/16 03:20:22;;;;;;;3.72;1.20;;;21.40;66.40;;;;;;5045702;28;20385;-63
2022/10/16 03:22:50;;;;;;;8.40;1.40;;;21.40;66.40;;;;;;5030408;28;20029;-62
2022/10/16 03:25:18;;;;;;;4.63;1.30;;;21.40;66.30;;;;;;5045549;28;20056;-64
2022/10/16 03:27:46;;;;;;;3.53;1.08;;;21.40;66.30;;;;;;5030829;28;20040;-64
2022/10/16 03:30:16;;;;;;;6.35;1.42;;;21.40;66.30;;;;;;5030343;28;20060;-64
2022/10/16 03:32:45;;;;;;;6.18;1.80;;;21.50;66.40;;;;;;5028585;28;20138;-64
2022/10/16 03:35:14;;;;;;;6.28;1.73;;;21.50;66.30;;;;;;5012776;28;20033;-64
2022/10/16 03:37:42;;;;;;;5.00;1.40;;;21.50;66.30;;;;;;5030400;28;20022;-64
2022/10/16 03:40:10;;;;;;;5.43;1.30;;;21.40;66.30;;;;;;5045952;28;20067;-64
2022/10/16 03:42:38;;;;;;;7.03;1.30;;;21.40;66.30;;;;;;5041635;28;20033;-64
2022/10/16 03:45:07;;;;;;;4.20;1.20;;;21.40;66.30;;;;;;5063860;28;20025;-64
2022/10/16 03:47:35;;;;;;;5.40;1.15;;;21.40;66.40;;;;;;5060736;28;20221;-65
2022/10/16 03:50:05;;;;;;;4.72;1.40;;;21.40;66.60;;;;;;5050156;28;20032;-65
2022/10/16 03:52:34;;;;;;;6.32;1.30;;;21.40;66.70;;;;;;5050003;28;20025;-64
2022/10/16 03:55:02;;;;;;;7.40;1.75;;;21.40;66.90;;;;;;5065583;28;20154;-63
2022/10/16 03:57:30;;;;;;;3.58;1.15;;;21.40;67.00;;;;;;5048282;28;20036;-63
2022/10/16 03:59:58;;;;;;;4.43;1.23;;;21.40;67.30;;;;;;5048662;28;20058;-65
2022/10/16 04:02:26;;;;;;;7.70;1.23;;;21.40;67.30;;;;;;5030813;28;20056;-66
2022/10/16 04:04:55;;;;;;;5.82;1.40;;;21.40;67.20;;;;;;5048576;28;20021;-64
2022/10/16 04:07:23;;;;;;;6.97;1.30;;;21.40;67.30;;;;;;5049614;28;20053;-63
2022/10/16 04:09:52;;;;;;;8.02;1.67;;;21.40;67.40;;;;;;5050075;28;20101;-63
2022/10/16 04:12:20;;;;;;;5.38;1.40;;;21.40;68.00;;;;;;5049527;28;20052;-63
2022/10/16 04:14:48;;;;;;;6.03;1.23;;;21.40;67.40;;;;;;5048305;28;20104;-63
2022/10/16 04:17:16;;;;;;;6.05;1.40;;;21.40;67.30;;;;;;5046801;28;20029;-64
2022/10/16 04:19:45;;;;;;;5.28;1.50;;;21.40;67.50;;;;;;5028635;28;20508;-64
2022/10/16 04:22:13;;;;;;;4.05;1.05;;;21.50;67.50;;;;;;5011989;28;20486;-64
2022/10/16 04:24:42;;;;;;;5.22;1.13;;;21.50;67.80;;;;;;5028467;28;20049;-64
2022/10/16 04:27:10;;;;;;;4.65;1.50;;;21.50;67.70;;;;;;5029406;28;20044;-63
2022/10/16 04:29:38;;;;;;;6.40;1.55;;;21.50;67.80;;;;;;5047346;28;20471;-64
2022/10/16 04:32:08;;;;;;;7.60;1.45;;;21.50;67.90;;;;;;5048852;28;20400;-64
2022/10/16 04:34:38;;;;;;;5.53;1.38;;;21.50;68.00;;;;;;5049964;28;20029;-65
2022/10/16 04:37:07;;;;;;;5.22;1.40;;;21.50;68.20;;;;;;5049574;28;20048;-66
2022/10/16 04:39:35;;;;;;;4.13;1.25;;;21.50;68.40;;;;;;5054047;28;20025;-64
2022/10/16 04:42:04;;;;;;;6.50;1.27;;;21.50;68.30;;;;;;5052648;28;20045;-64
2022/10/16 04:44:32;;;;;;;6.82;1.52;;;21.50;68.20;;;;;;5052682;28;20036;-64
2022/10/16 04:47:01;;;;;;;5.75;1.40;;;21.50;68.30;;;;;;5051481;28;20037;-64
2022/10/16 04:49:29;;;;;;;5.00;1.40;;;21.50;68.30;;;;;;5048153;28;20021;-64
2022/10/16 04:51:57;;;;;;;5.93;1.50;;;21.50;68.40;;;;;;5032159;28;20053;-64
2022/10/16 04:54:25;;;;;;;8.43;1.60;;;21.50;68.40;;;;;;5033567;28;20025;-64
2022/10/16 04:56:54;;;;;;;6.22;1.60;;;21.50;68.50;;;;;;5031967;28;20026;-64
2022/10/16 04:59:22;;;;;;;5.75;1.20;;;21.50;68.60;;;;;;5032370;28;20049;-63
2022/10/16 05:01:50;;;;;;;5.68;1.30;;;21.50;68.60;;;;;;5033208;28;20049;-63
2022/10/16 05:04:18;;;;;;;5.78;1.10;;;21.50;68.60;;;;;;5043008;28;20013;-64
2022/10/16 05:06:48;;;;;;;4.55;1.30;;;21.50;68.60;;;;;;5049408;28;20452;-63
2022/10/16 05:09:17;;;;;;;4.65;1.30;;;21.50;68.60;;;;;;5040878;28;20503;-64
2022/10/16 05:11:45;;;;;;;5.88;1.30;;;21.50;68.60;;;;;;5053496;28;20044;-65
2022/10/16 05:14:14;;;;;;;5.45;1.27;;;21.50;68.60;;;;;;5053091;28;20024;-64
2022/10/16 05:16:42;;;;;;;6.18;1.30;;;21.50;68.60;;;;;;5052654;28;20048;-63
2022/10/16 05:19:10;;;;;;;5.20;1.25;;;21.50;68.60;;;;;;5051202;28;20025;-63
2022/10/16 05:21:39;;;;;;;4.03;1.08;;;21.50;68.60;;;;;;5068147;28;20021;-63
2022/10/16 05:24:09;;;;;;;7.35;1.50;;;21.50;68.80;;;;;;5043844;28;20364;-64
2022/10/16 05:26:37;;;;;;;4.35;1.33;;;21.60;69.10;;;;;;5032885;28;20132;-64
2022/10/16 05:29:05;;;;;;;3.35;1.27;;;21.50;69.20;;;;;;5032870;28;20403;-63
2022/10/16 05:31:34;;;;;;;6.78;1.75;;;21.60;69.20;;;;;;5047746;28;20029;-64
2022/10/16 05:34:02;;;;;;;5.68;1.40;;;21.50;69.10;;;;;;5047678;28;20025;-64
2022/10/16 05:36:30;;;;;;;7.15;1.80;;;21.60;69.10;;;;;;5032686;28;20025;-64
2022/10/16 05:38:58;;;;;;;6.68;1.30;;;21.60;69.10;;;;;;5052102;28;20329;-63
2022/10/16 05:41:27;;;;;;;7.10;1.38;;;21.60;69.20;;;;;;5032546;28;20049;-64
2022/10/16 05:43:55;;;;;;;8.00;1.40;;;21.50;69.00;;;;;;5031217;28;20033;-65
2022/10/16 05:46:23;;;;;;;7.80;1.48;;;21.50;69.20;;;;;;5031967;28;20500;-64
2022/10/16 05:48:53;;;;;;;4.80;1.20;;;21.50;69.30;;;;;;5030501;28;20026;-65
2022/10/16 05:51:21;;;;;;;7.57;1.20;;;21.50;69.60;;;;;;5037491;28;20479;-65
2022/10/16 05:53:49;;;;;;;5.40;1.30;;;21.50;69.70;;;;;;5051350;28;20537;-64
2022/10/16 05:56:18;;;;;;;7.55;1.65;;;21.50;69.80;;;;;;5068128;28;20040;-65
2022/10/16 05:58:46;;;;;;;6.65;1.38;;;21.50;69.80;;;;;;5052643;28;20614;-64
2022/10/16 06:01:17;;;;;;;4.10;1.10;;;21.50;69.70;;;;;;5051871;28;20035;-64
2022/10/16 06:03:45;;;;;;;5.53;1.30;;;21.50;69.90;;;;;;5050826;28;20025;-64
2022/10/16 06:06:16;;;;;;;4.88;1.27;;;21.50;69.80;;;;;;5051671;28;20094;-64
2022/10/16 06:08:45;;;;;;;6.80;1.80;;;21.50;69.90;;;;;;5052340;28;20076;-64
2022/10/16 06:11:19;;;;;;;4.72;1.27;;;21.50;69.90;;;;;;5052162;28;20051;-63
2022/10/16 06:13:56;;;;;;;7.38;1.40;;;21.50;69.90;;;;;;5067694;28;20037;-63
2022/10/16 06:16:26;;;;;;;7.53;1.77;;;21.50;70.10;;;;;;5050351;28;20025;-63
2022/10/16 06:18:56;;;;;;;4.20;1.40;;;21.50;70.20;;;;;;5033680;28;20065;-64
2022/10/16 06:21:26;;;;;;;6.65;1.55;;;21.50;70.50;;;;;;5031955;28;20529;-64
2022/10/16 06:23:55;;;;;;;4.65;1.33;;;21.50;70.60;;;;;;5031802;28;20040;-64
2022/10/16 06:26:29;;;;;;;6.22;1.33;;;21.50;70.70;;;;;;5030483;28;20512;-64
2022/10/16 06:28:59;;;;;;;5.40;1.30;;;21.50;70.70;;;;;;5031760;28;20060;-64
2022/10/16 06:31:30;;;;;;;7.03;1.40;;;21.50;70.70;;;;;;5031197;28;20033;-63
2022/10/16 06:33:59;;;;;;;6.45;1.67;;;21.60;70.90;;;;;;5050850;28;20025;-64
2022/10/16 06:36:28;;;;;;;5.72;1.30;;;21.60;70.70;;;;;;5066720;28;20372;-64
2022/10/16 06:38:56;;;;;;;7.70;1.40;;;21.60;71.30;;;;;;5051452;28;20480;-64
2022/10/16 06:41:24;;;;;;;6.28;1.30;;;21.60;70.70;;;;;;5051353;28;20455;-63
2022/10/16 06:43:53;;;;;;;5.22;1.50;;;21.60;70.60;;;;;;5051545;28;20058;-63
2022/10/16 06:46:24;;;;;;;6.03;1.65;;;21.60;70.60;;;;;;5051087;28;20163;-63
2022/10/16 06:48:54;;;;;;;4.80;1.45;;;21.60;70.50;;;;;;5032636;28;20443;-64
2022/10/16 06:51:24;;;;;;;7.35;1.30;;;21.60;70.60;;;;;;5030289;28;20029;-66
2022/10/16 06:53:56;;;;;;;7.13;1.42;;;21.50;70.40;;;;;;5031497;28;20026;-66
2022/10/16 06:56:27;;;;;;;6.07;1.30;;;21.50;70.40;;;;;;5031625;28;20033;-63
2022/10/16 06:58:55;;;;;;;6.63;1.30;;;21.50;70.40;;;;;;5031020;28;20025;-64
2022/10/16 07:01:24;;;;;;;7.15;1.40;;;21.50;70.40;;;;;;5029380;28;20125;-65
2022/10/16 07:03:53;;;;;;;7.05;1.27;;;21.50;70.40;;;;;;5030985;28;20546;-65
2022/10/16 07:06:23;;;;;;;5.20;1.30;;;21.50;70.40;;;;;;5046351;28;20484;-63
2022/10/16 07:08:52;;;;;;;6.25;1.40;;;21.50;70.30;;;;;;5031122;28;20036;-63
2022/10/16 07:11:23;;;;;;;10.60;2.53;;;21.50;70.40;;;;;;5031525;28;20073;-62
2022/10/16 07:13:52;;;;;;;8.73;2.08;;;21.50;70.50;;;;;;5031000;28;20030;-64
2022/10/16 07:16:24;;;;;;;6.05;2.03;;;21.50;70.70;;;;;;5045958;28;20025;-63
2022/10/16 07:18:58;;;;;;;6.22;1.80;;;21.50;71.00;;;;;;5030542;28;20125;-65
2022/10/16 07:21:29;;;;;;;7.32;1.77;;;21.50;71.10;;;;;;5030874;28;20048;-66
2022/10/16 07:24:03;;;;;;;6.53;1.90;;;21.50;71.20;;;;;;5030713;28;20026;-63
2022/10/16 07:26:34;;;;;;;6.50;1.70;;;21.50;71.40;;;;;;5045740;28;20045;-64
2022/10/16 07:29:03;;;;;;;5.95;1.60;;;21.40;71.20;;;;;;5045815;28;20029;-64
2022/10/16 07:31:31;;;;;;;4.45;1.42;;;21.40;71.30;;;;;;5041375;28;20021;-64
2022/10/16 07:34:00;;;;;;;6.15;1.48;;;21.40;72.00;;;;;;5059011;28;20022;-64
2022/10/16 07:36:29;;;;;;;5.68;1.58;;;21.40;71.40;;;;;;5030556;28;20105;-63
2022/10/16 07:38:57;;;;;;;6.38;1.50;;;21.40;71.60;;;;;;5045291;28;20079;-63
2022/10/16 07:41:26;;;;;;;7.95;1.50;;;21.40;71.60;;;;;;5030191;28;20490;-63
2022/10/16 07:43:57;;;;;;;6.18;1.35;;;21.40;71.70;;;;;;5030499;28;20029;-63
2022/10/16 07:46:26;;;;;;;5.93;1.75;;;21.40;71.80;;;;;;5028749;28;20464;-65
2022/10/16 07:48:55;;;;;;;6.45;1.38;;;21.40;71.80;;;;;;5019719;28;20111;-65
2022/10/16 07:51:26;;;;;;;5.75;1.35;;;21.40;71.60;;;;;;5050158;28;20097;-64
2022/10/16 07:53:55;;;;;;;6.15;1.52;;;21.30;71.60;;;;;;5048698;28;20549;-64
2022/10/16 07:56:23;;;;;;;7.57;1.50;;;21.30;71.50;;;;;;5050187;28;20124;-65
2022/10/16 07:58:52;;;;;;;5.07;1.38;;;21.30;71.50;;;;;;5048579;28;20078;-63
2022/10/16 08:01:21;;;;;;;4.93;1.42;;;21.30;71.70;;;;;;5048529;28;20045;-62
2022/10/16 08:03:52;;;;;;;3.95;1.38;;;21.20;71.30;;;;;;5049012;28;20036;-64
2022/10/16 08:06:21;;;;;;;6.80;1.30;;;21.20;72.00;;;;;;5065467;28;20052;-61
2022/10/16 08:08:50;;;;;;;6.05;1.45;;;21.20;71.50;;;;;;5065692;28;20310;-64
2022/10/16 08:11:18;;;;;;;8.52;1.52;;;21.10;71.60;;;;;;5050156;28;20033;-64
2022/10/16 08:13:46;;;;;;;4.38;1.48;;;21.10;71.70;;;;;;5046544;28;20028;-63
2022/10/16 08:16:14;;;;;;;4.90;1.20;;;21.10;71.80;;;;;;5054464;28;20405;-61
2022/10/16 08:18:42;;;;;;;7.95;1.65;;;21.10;72.10;;;;;;5061361;28;20021;-61
2022/10/16 08:21:21;;;;;;;6.65;1.70;;;21.10;72.10;;;;;;5040631;28;20108;-60
2022/10/16 08:23:51;;;;;;;6.60;1.50;;;21.10;72.40;;;;;;5050099;28;20025;-59
2022/10/16 08:26:19;;;;;;;8.05;1.30;;;21.10;72.60;;;;;;5046966;28;20036;-63
2022/10/16 08:28:51;;;;;;;7.93;1.50;;;21.20;72.70;;;;;;5051966;28;20473;-63
2022/10/16 08:31:20;;;;;;;7.07;1.73;;;21.20;72.50;;;;;;5048592;28;20106;-64
2022/10/16 08:33:48;;;;;;;7.18;1.83;;;21.20;72.20;;;;;;5054010;28;20433;-63
2022/10/16 08:36:17;;;;;;;10.48;1.90;;;21.20;72.00;;;;;;5033449;28;20022;-64
2022/10/16 08:38:49;;;;;;;6.18;1.52;;;21.20;71.90;;;;;;5038852;28;20029;-64
2022/10/16 08:41:49;;;;;;;9.38;1.50;;;21.20;71.80;;;;;;5048331;28;20104;-64
2022/10/16 08:44:20;;;;;;;4.95;1.50;;;21.20;71.70;;;;;;5056359;28;20107;-64
2022/10/16 08:47:04;;;;;;;9.20;2.00;;;21.20;71.60;;;;;;5029480;28;20092;-64
2022/10/16 08:49:33;;;;;;;7.75;1.60;;;21.20;71.50;;;;;;5030261;28;20064;-64
2022/10/16 08:52:01;;;;;;;6.90;1.50;;;21.20;71.30;;;;;;5034950;28;20025;-64
2022/10/16 08:54:52;;;;;;;5.15;1.20;;;21.20;71.10;;;;;;5048037;28;20071;-63
2022/10/16 08:57:23;;;;;;;7.53;1.85;;;21.20;71.00;;;;;;5048061;28;20029;-64
2022/10/16 08:59:52;;;;;;;7.72;1.58;;;21.20;70.90;;;;;;5062845;28;20401;-64
2022/10/16 09:02:39;;;;;;;6.97;1.42;;;21.10;70.90;;;;;;5046835;28;20124;-63
2022/10/16 09:05:43;;;;;;;6.75;1.60;;;21.20;71.00;;;;;;5029387;28;20029;-64
2022/10/16 09:08:36;;;;;;;6.53;1.38;;;21.10;70.90;;;;;;5035854;28;20033;-63
2022/10/16 09:11:17;;;;;;;6.35;1.63;;;21.10;71.10;;;;;;5045180;28;20101;-64
2022/10/16 09:14:36;;;;;;;8.13;1.58;;;21.10;71.20;;;;;;5045039;28;20032;-63
2022/10/16 09:17:34;;;;;;;7.43;1.20;;;21.10;71.40;;;;;;5026208;28;20041;-64
2022/10/16 09:20:18;;;;;;;6.50;1.70;;;21.00;71.40;;;;;;5064865;28;20372;-63
2022/10/16 09:22:47;;;;;;;6.13;1.45;;;21.00;71.30;;;;;;5051011;28;20075;-63
2022/10/16 09:25:22;;;;;;;5.10;1.27;;;21.10;71.20;;;;;;5068300;28;20036;-64
2022/10/16 09:27:54;;;;;;;6.80;1.40;;;21.00;71.10;;;;;;5064771;28;20029;-63
2022/10/16 09:30:29;;;;;;;8.00;1.50;;;21.00;71.00;;;;;;5032629;28;20034;-64
2022/10/16 09:32:59;;;;;;;5.20;1.40;;;21.00;70.70;;;;;;5047233;28;20068;-63
2022/10/16 09:35:52;;;;;;;5.63;1.52;;;21.10;70.50;;;;;;5042344;28;20021;-63
2022/10/16 09:38:30;;;;;;;8.48;1.65;;;21.10;70.40;;;;;;5043178;28;20476;-63
2022/10/16 09:41:03;;;;;;;4.13;1.33;;;21.10;70.20;;;;;;5049406;28;20033;-64
2022/10/16 09:43:47;;;;;;;5.20;1.90;;;21.10;70.20;;;;;;5051141;28;20473;-64
2022/10/16 09:46:42;;;;;;;5.60;1.60;;;21.10;70.60;;;;;;5052510;28;20069;-65
2022/10/16 09:49:25;;;;;;;6.07;1.30;;;21.10;70.90;;;;;;5030506;28;20029;-59
2022/10/16 09:52:12;;;;;;;6.82;1.30;;;21.10;71.50;;;;;;5048661;28;20034;-67
2022/10/16 09:55:21;;;;;;;7.75;1.50;;;21.10;72.70;;;;;;5054190;28;20666;-62
2022/10/16 09:57:53;;;;;;;6.00;1.33;;;21.10;74.80;;;;;;5060775;28;20429;-60
2022/10/16 10:00:24;;;;;;;5.55;1.40;;;21.10;74.80;;;;;;5046440;28;20041;-60
2022/10/16 10:02:54;;;;;;;4.82;1.10;;;21.10;74.30;;;;;;5058311;28;20029;-62
2022/10/16 10:05:26;;;;;;;7.22;1.38;;;21.10;75.30;;;;;;5036534;28;20550;-61
2022/10/16 10:07:59;;;;;;;6.85;1.33;;;21.10;75.70;;;;;;5033303;28;20129;-62
2022/10/16 10:10:30;;;;;;;5.72;1.52;;;21.10;76.10;;;;;;5052037;28;20098;-60
2022/10/16 10:12:59;;;;;;;6.00;1.60;;;21.10;76.60;;;;;;5040878;28;20135;-61
2022/10/16 10:15:35;;;;;;;9.25;1.40;;;21.00;77.50;;;;;;5049015;28;20263;-61
2022/10/16 10:18:16;;;;;;;8.82;1.70;;;21.00;77.30;;;;;;5033745;28;20057;-60
2022/10/16 10:20:44;;;;;;;7.30;1.40;;;21.00;77.60;;;;;;5062605;28;20061;-60
2022/10/16 10:23:27;;;;;;;8.07;1.70;;;21.00;77.00;;;;;;5043899;28;20029;-61
2022/10/16 10:26:21;;;;;;;5.82;1.30;;;21.00;77.90;;;;;;5043964;28;20037;-61
2022/10/16 10:29:15;;;;;;;5.88;1.38;;;21.00;77.90;;;;;;5046479;28;20421;-60
2022/10/16 10:32:22;;;;;;;7.88;1.60;;;21.00;77.60;;;;;;5047941;28;20140;-59
2022/10/16 10:35:07;;;;;;;7.80;1.60;;;21.00;78.00;;;;;;5018614;28;20388;-62
2022/10/16 10:38:03;;;;;;;7.80;1.60;;;21.00;77.70;;;;;;5050251;28;20024;-60
2022/10/16 10:40:45;;;;;;;6.70;1.35;;;21.00;77.90;;;;;;5043761;28;20028;-60
2022/10/16 10:43:40;;;;;;;7.00;1.45;;;21.00;78.00;;;;;;5032921;28;20045;-61
2022/10/16 10:46:16;;;;;;;5.65;1.42;;;20.90;78.10;;;;;;5047251;28;20087;-61
2022/10/16 10:49:07;;;;;;;8.32;1.77;;;20.90;78.00;;;;;;5045388;28;20057;-61
2022/10/16 10:51:54;;;;;;;6.00;1.45;;;20.90;78.10;;;;;;5057111;28;20075;-61
2022/10/16 10:54:32;;;;;;;8.20;1.70;;;20.90;78.30;;;;;;5063977;28;20498;-61
2022/10/16 10:57:26;;;;;;;6.15;1.50;;;20.90;78.30;;;;;;5049499;28;20128;-60
2022/10/16 11:00:04;;;;;;;5.72;1.58;;;20.90;78.70;;;;;;5049429;28;20029;-62
2022/10/16 11:02:46;;;;;;;7.95;2.38;;;20.90;79.00;;;;;;5052662;28;20051;-61
2022/10/16 11:05:15;;;;;;;12.82;2.55;;;20.90;79.60;;;;;;5054750;28;20498;-61
2022/10/16 11:08:23;;;;;;;9.18;2.33;;;21.00;80.60;;;;;;5039287;28;20212;-61
2022/10/16 11:10:54;;;;;;;10.02;2.17;;;21.00;81.10;;;;;;5033311;28;20478;-62
2022/10/16 11:13:53;;;;;;;12.30;2.33;;;21.00;81.40;;;;;;5062203;28;20309;-61
2022/10/16 11:16:39;;;;;;;11.80;2.08;;;21.00;81.40;;;;;;5047353;28;20084;-70
2022/10/16 11:19:39;;;;;;;9.65;2.17;;;21.00;81.70;;;;;;5049127;28;20040;-62
2022/10/16 11:22:24;;;;;;;8.27;2.17;;;21.00;82.00;;;;;;5036577;28;20040;-62
2022/10/16 11:25:02;;;;;;;15.30;2.55;;;21.00;81.40;;;;;;5065660;28;20040;-62
2022/10/16 11:27:50;;;;;;;10.93;1.88;;;21.00;81.80;;;;;;5050377;28;20087;-62
2022/10/16 11:30:31;;;;;;;7.80;1.95;;;21.00;82.40;;;;;;5049432;28;20028;-62
2022/10/16 11:33:18;;;;;;;5.65;1.52;;;21.00;82.10;;;;;;5050142;28;20021;-63
2022/10/16 11:35:52;;;;;;;11.15;2.00;;;21.00;82.10;;;;;;5050929;28;20029;-62
2022/10/16 11:38:55;;;;;;;10.07;2.20;;;21.00;82.40;;;;;;5035547;28;20096;-63
2022/10/16 11:41:50;;;;;;;10.15;2.10;;;21.00;82.20;;;;;;5024130;28;20059;-62
2022/10/16 11:44:31;;;;;;;6.95;1.58;;;21.00;82.10;;;;;;5059079;28;20026;-62
2022/10/16 11:47:08;;;;;;;8.77;1.67;;;21.00;82.20;;;;;;5039630;28;20413;-63
2022/10/16 11:49:39;;;;;;;10.05;1.88;;;21.00;82.00;;;;;;5045304;28;20358;-63
2022/10/16 11:52:16;;;;;;;6.43;1.65;;;20.90;81.70;;;;;;5052574;28;20024;-63
2022/10/16 11:55:02;;;;;;;8.60;1.95;;;20.90;82.30;;;;;;5053599;28;20079;-63
2022/10/16 11:57:55;;;;;;;6.43;1.75;;;21.00;82.40;;;;;;5045801;28;20032;-62
2022/10/16 12:00:26;;;;;;;11.40;2.17;;;20.90;82.00;;;;;;5029877;28;20017;-63
2022/10/16 12:03:04;;;;;;;13.43;1.90;;;20.90;82.30;;;;;;5031000;28;20024;-63
2022/10/16 12:05:53;;;;;;;11.85;2.35;;;20.90;82.40;;;;;;5041369;28;20063;-63
2022/10/16 12:08:22;;;;;;;9.45;1.92;;;20.90;82.30;;;;;;5038088;28;20034;-63
2022/10/16 12:10:50;;;;;;;10.48;1.70;;;20.90;82.30;;;;;;5043715;28;20046;-66
2022/10/16 12:13:32;;;;;;;11.25;1.90;;;20.90;83.00;;;;;;5033359;28;20021;-62
2022/10/16 12:16:22;;;;;;;12.05;2.10;;;20.90;82.50;;;;;;5045934;28;20061;-62
2022/10/16 12:19:03;;;;;;;7.13;1.85;;;20.90;82.40;;;;;;5035366;28;20507;-66
2022/10/16 12:21:32;;;;;;;8.00;1.92;;;20.90;82.40;;;;;;5060062;28;20060;-63
2022/10/16 12:24:04;;;;;;;8.00;1.70;;;20.90;82.40;;;;;;5049690;28;20022;-63
2022/10/16 12:26:38;;;;;;;8.73;1.88;;;20.80;82.10;;;;;;5044872;28;20079;-63
2022/10/16 12:29:27;;;;;;;9.85;2.10;;;20.80;82.20;;;;;;5034099;28;20064;-63
2022/10/16 12:31:56;;;;;;;10.30;1.75;;;20.90;82.30;;;;;;5032786;28;20044;-63
2022/10/16 12:34:45;;;;;;;6.15;1.80;;;20.90;82.00;;;;;;5042330;28;20112;-63
2022/10/16 12:37:22;;;;;;;10.88;2.33;;;20.90;82.10;;;;;;5048343;28;20491;-63
2022/10/16 12:39:52;;;;;;;8.82;1.73;;;20.80;81.90;;;;;;5049753;28;20025;-63
2022/10/16 12:42:30;;;;;;;9.25;1.75;;;20.80;81.80;;;;;;5045013;28;20041;-63
2022/10/16 12:44:58;;;;;;;8.52;1.63;;;20.90;82.00;;;;;;5059615;28;20035;-63
2022/10/16 12:47:32;;;;;;;9.77;2.22;;;20.80;81.70;;;;;;5032821;28;20068;-64
2022/10/16 12:50:01;;;;;;;7.28;1.52;;;20.80;81.70;;;;;;5042628;28;20111;-64
2022/10/16 12:52:37;;;;;;;9.50;1.95;;;20.80;81.80;;;;;;5058185;28;20025;-64
2022/10/16 12:55:15;;;;;;;8.27;1.73;;;20.80;81.60;;;;;;5062379;28;20048;-64
2022/10/16 12:58:09;;;;;;;7.70;1.63;;;20.80;81.70;;;;;;5045143;28;20105;-63
2022/10/16 13:01:05;;;;;;;8.05;1.85;;;20.80;81.90;;;;;;5032903;28;20040;-63
2022/10/16 13:03:48;;;;;;;7.35;2.00;;;20.80;81.70;;;;;;5051483;28;20017;-63
2022/10/16 13:06:53;;;;;;;9.52;1.80;;;20.80;81.70;;;;;;5038464;28;20041;-63
2022/10/16 13:09:30;;;;;;;8.32;1.77;;;20.80;81.60;;;;;;5035940;28;20037;-65
2022/10/16 13:12:16;;;;;;;7.53;1.45;;;20.80;81.80;;;;;;5056839;28;20127;-64
2022/10/16 13:15:06;;;;;;;5.63;2.10;;;20.70;81.80;;;;;;5060030;28;20025;-63
2022/10/16 13:17:47;;;;;;;7.18;1.80;;;20.70;81.90;;;;;;5047029;28;20025;-64
2022/10/16 13:20:32;;;;;;;9.25;1.90;;;20.70;82.00;;;;;;5047618;28;20022;-63
2022/10/16 13:23:15;;;;;;;8.35;1.80;;;20.70;82.00;;;;;;5038943;28;20030;-64